EIK weather

Erie Municipal Airport
Erie, Colorado, United States

Public forecast

Using degrees Fahrenheit for public forecast. Weather courtesy of forecast.io.

Current aviation weather report (METAR) for Erie Municipal Airport

Retrieved 2019/11/17 18:35 UTC (22 minutes ago):

KEIK 171835Z AUTO 17004KT 10SM CLR 11/M06 A3013 RMK AO2 T01131056

Closest aviation forecast (TAF) to Erie Municipal Airport

Closest forecast is Rocky Mountain Metropolitan Airport, 6.9 nm (12.7 km) SSW. Retrieved 2019/11/17 18:54 UTC (3 minutes ago):

TAF KBJC 171753Z 1718/1818 15006KT P6SM FEW100 FM180100 20006KT P6SM SCT100 BKN180 FM180500 25010KT P6SM SCT100 BKN180